createdAt,value
2018-03-17T00:02:06.364Z,7.15
2018-03-17T00:04:36.169Z,10.25
2018-03-17T00:07:05.981Z,8.20
2018-03-17T00:09:35.819Z,6.47
2018-03-17T00:12:05.613Z,8.18
2018-03-17T00:14:35.407Z,8.80
2018-03-17T00:17:05.194Z,9.63
2018-03-17T00:19:34.999Z,8.43
2018-03-17T00:22:04.844Z,11.35
2018-03-17T00:24:34.427Z,11.68
2018-03-17T00:27:03.976Z,8.60
2018-03-17T00:29:33.805Z,9.05
2018-03-17T00:32:03.630Z,8.85
2018-03-17T00:34:33.443Z,12.93
2018-03-17T00:37:03.259Z,9.82
2018-03-17T00:39:33.063Z,12.70
2018-03-17T00:42:02.901Z,10.35
2018-03-17T00:44:32.740Z,8.68
2018-03-17T00:47:02.540Z,9.38
2018-03-17T00:49:32.338Z,11.98
2018-03-17T00:52:02.131Z,9.55
2018-03-17T00:54:31.940Z,11.85
2018-03-17T00:57:01.791Z,11.43
2018-03-17T00:59:31.611Z,11.57
2018-03-17T01:02:01.419Z,13.25
2018-03-17T01:04:31.220Z,11.00
2018-03-17T01:07:01.245Z,10.73
2018-03-17T01:09:31.273Z,13.18
2018-03-17T01:12:01.137Z,11.07
2018-03-17T01:14:30.787Z,12.27
2018-03-17T01:17:00.436Z,12.10
2018-03-17T01:19:30.466Z,13.45
2018-03-17T01:22:00.284Z,11.52
2018-03-17T01:24:30.101Z,11.40
2018-03-17T01:27:00.220Z,14.32
2018-03-17T01:29:30.156Z,10.52
2018-03-17T01:31:59.973Z,14.23
2018-03-17T01:34:29.829Z,12.07
2018-03-17T01:36:59.426Z,16.55
2018-03-17T01:39:29.217Z,12.98
2018-03-17T01:41:59.073Z,14.27
2018-03-17T01:44:28.970Z,15.13
2018-03-17T01:46:58.759Z,17.02
2018-03-17T01:49:28.593Z,12.88
2018-03-17T01:51:58.418Z,16.85
2018-03-17T01:54:32.764Z,13.77
2018-03-17T01:57:02.602Z,11.50
2018-03-17T01:59:33.177Z,15.38
2018-03-17T02:02:03.020Z,20.62
2018-03-17T02:04:32.844Z,16.40
2018-03-17T02:07:02.764Z,15.57
2018-03-17T02:09:32.610Z,14.02
2018-03-17T02:12:02.485Z,16.62
2018-03-17T02:14:33.394Z,14.90
2018-03-17T02:17:03.037Z,16.90
2018-03-17T02:19:32.850Z,15.85
2018-03-17T02:22:02.665Z,18.10
2018-03-17T02:24:32.276Z,14.73
2018-03-17T02:27:02.106Z,16.17
2018-03-17T02:29:31.914Z,15.60
2018-03-17T02:32:01.733Z,14.40
2018-03-17T02:34:31.574Z,15.93
2018-03-17T02:37:01.446Z,16.87
2018-03-17T02:39:31.288Z,14.38
2018-03-17T02:42:01.118Z,15.52
2018-03-17T02:44:30.942Z,17.60
2018-03-17T02:47:00.538Z,16.80
2018-03-17T02:49:30.368Z,18.37
2018-03-17T02:52:00.180Z,20.75
2018-03-17T02:54:30.033Z,17.15
2018-03-17T02:56:59.858Z,21.35
2018-03-17T02:59:29.736Z,19.12
2018-03-17T03:01:59.590Z,23.12
2018-03-17T03:04:29.405Z,16.30
2018-03-17T03:06:59.565Z,20.10
2018-03-17T03:09:29.552Z,19.77
2018-03-17T03:12:00.349Z,22.58
2018-03-17T03:14:30.212Z,21.62
2018-03-17T03:17:00.012Z,24.77
2018-03-17T03:19:29.907Z,23.87
2018-03-17T03:21:59.714Z,26.83
2018-03-17T03:24:29.532Z,22.45
2018-03-17T03:26:59.390Z,25.70
2018-03-17T03:29:29.215Z,24.05
2018-03-17T03:31:59.041Z,28.98
2018-03-17T03:34:28.875Z,22.65
2018-03-17T03:36:58.696Z,26.62
2018-03-17T03:39:28.565Z,22.05
2018-03-17T03:41:58.381Z,26.12
2018-03-17T03:44:28.209Z,23.85
2018-03-17T03:46:58.034Z,24.05
2018-03-17T03:49:27.841Z,26.25
2018-03-17T03:51:57.712Z,20.77
2018-03-17T03:54:27.525Z,18.02
2018-03-17T03:56:57.346Z,18.37
2018-03-17T03:59:27.174Z,23.10
2018-03-17T04:01:57.007Z,16.48
2018-03-17T04:04:26.826Z,20.60
2018-03-17T04:06:56.657Z,16.33
2018-03-17T04:09:26.490Z,19.80
2018-03-17T04:11:56.325Z,24.17
2018-03-17T04:14:26.137Z,17.83
2018-03-17T04:16:55.950Z,17.58
2018-03-17T04:19:25.760Z,19.35
2018-03-17T04:21:55.393Z,19.70
2018-03-17T04:24:25.091Z,20.75
2018-03-17T04:26:54.944Z,19.58
2018-03-17T04:29:24.575Z,18.85
2018-03-17T04:31:54.686Z,19.95
2018-03-17T04:34:24.623Z,24.95
2018-03-17T04:36:54.814Z,25.05
2018-03-17T04:39:24.636Z,22.05
2018-03-17T04:41:54.509Z,18.05
2018-03-17T04:44:24.318Z,25.23
2018-03-17T04:46:54.203Z,21.08
2018-03-17T04:49:24.001Z,28.50
2018-03-17T04:51:53.818Z,31.90
2018-03-17T04:54:23.660Z,28.80
2018-03-17T04:56:53.454Z,40.00
2018-03-17T04:59:23.030Z,37.83
2018-03-17T05:01:52.856Z,38.42
2018-03-17T05:04:22.540Z,37.78
2018-03-17T05:06:52.381Z,41.90
2018-03-17T05:09:22.198Z,30.73
2018-03-17T05:11:52.022Z,42.50
2018-03-17T05:14:21.874Z,42.30
2018-03-17T05:16:51.674Z,41.92
2018-03-17T05:19:21.533Z,37.17
2018-03-17T05:21:51.339Z,41.35
2018-03-17T05:24:21.213Z,42.08
2018-03-17T05:26:51.008Z,40.65
2018-03-17T05:29:22.161Z,37.60
2018-03-17T05:31:51.988Z,41.20
2018-03-17T05:34:21.808Z,39.38
2018-03-17T05:36:55.674Z,40.38
2018-03-17T05:39:25.288Z,48.53
2018-03-17T05:41:55.178Z,39.35
2018-03-17T05:44:25.019Z,40.35
2018-03-17T05:46:54.849Z,36.30
2018-03-17T05:49:24.667Z,41.60
2018-03-17T05:51:55.188Z,36.00
2018-03-17T05:54:25.016Z,37.80
2018-03-17T05:56:54.820Z,33.35
2018-03-17T05:59:24.449Z,31.92
2018-03-17T06:01:54.332Z,32.83
2018-03-17T06:04:24.196Z,30.00
2018-03-17T06:06:54.067Z,25.80
2018-03-17T06:09:23.896Z,31.30
2018-03-17T06:11:53.767Z,28.33
2018-03-17T06:14:23.610Z,31.52
2018-03-17T06:16:53.441Z,29.70
2018-03-17T06:19:23.554Z,36.08
2018-03-17T06:21:53.390Z,29.37
2018-03-17T06:24:23.379Z,31.55
2018-03-17T06:26:53.307Z,32.90
2018-03-17T06:29:23.118Z,30.48
2018-03-17T06:31:52.986Z,33.10
2018-03-17T06:34:23.172Z,34.00
2018-03-17T06:36:53.000Z,28.33
2018-03-17T06:39:22.821Z,32.10
2018-03-17T06:41:52.657Z,35.45
2018-03-17T06:44:22.461Z,29.25
2018-03-17T06:46:52.443Z,30.52
2018-03-17T06:49:22.664Z,35.38
2018-03-17T06:51:52.448Z,33.72
2018-03-17T06:54:22.710Z,33.65
2018-03-17T06:56:53.139Z,27.48
2018-03-17T06:59:22.962Z,27.92
2018-03-17T07:01:56.928Z,33.50
2018-03-17T07:04:26.725Z,32.17
2018-03-17T07:06:56.560Z,30.83
2018-03-17T07:09:26.945Z,35.22
2018-03-17T07:11:56.771Z,29.92
2018-03-17T07:14:26.662Z,30.83
2018-03-17T07:16:57.121Z,33.15
2018-03-17T07:19:26.980Z,27.98
2018-03-17T07:21:56.892Z,30.30
2018-03-17T07:24:26.704Z,33.63
2018-03-17T07:26:56.528Z,25.30
2018-03-17T07:29:26.351Z,40.95
2018-03-17T07:31:56.689Z,31.90
2018-03-17T07:34:26.487Z,30.77
2018-03-17T07:36:56.380Z,34.78
2018-03-17T07:39:26.274Z,16.27
2018-03-17T07:41:56.107Z,24.30
2018-03-17T07:44:25.919Z,32.03
2018-03-17T07:46:55.775Z,29.92
2018-03-17T07:49:25.604Z,29.20
2018-03-17T07:51:55.594Z,24.08
2018-03-17T07:54:25.425Z,33.53
2018-03-17T07:56:55.918Z,31.37
2018-03-17T07:59:25.728Z,35.63
2018-03-17T08:01:55.551Z,28.05
2018-03-17T08:04:25.686Z,31.30
2018-03-17T08:06:55.497Z,27.33
2018-03-17T08:09:25.765Z,28.50
2018-03-17T08:11:55.596Z,29.37
2018-03-17T08:14:25.228Z,37.40
2018-03-17T08:16:55.315Z,27.65
2018-03-17T08:19:25.132Z,34.60
2018-03-17T08:21:55.184Z,21.73
2018-03-17T08:24:25.899Z,26.98
2018-03-17T08:26:56.504Z,24.73
2018-03-17T08:29:26.424Z,28.50
2018-03-17T08:31:56.272Z,22.10
2018-03-17T08:34:26.109Z,17.67
2018-03-17T08:36:56.030Z,23.42
2018-03-17T08:39:26.024Z,25.65
2018-03-17T08:42:00.717Z,26.02
2018-03-17T08:44:30.695Z,21.92
2018-03-17T08:47:00.740Z,27.05
2018-03-17T08:49:30.661Z,27.45
2018-03-17T08:52:00.512Z,23.05
2018-03-17T08:54:30.336Z,23.48
2018-03-17T08:57:00.224Z,23.12
2018-03-17T08:59:30.010Z,22.87
2018-03-17T09:01:59.882Z,24.33
2018-03-17T09:04:29.732Z,31.12
2018-03-17T09:06:59.782Z,22.05
2018-03-17T09:09:30.455Z,23.65
2018-03-17T09:12:00.295Z,24.50
2018-03-17T09:14:30.116Z,24.35
2018-03-17T09:16:59.942Z,23.08
2018-03-17T09:19:29.561Z,24.83
2018-03-17T09:21:59.356Z,17.15
2018-03-17T09:24:29.274Z,20.98
2018-03-17T09:26:59.127Z,23.80
2018-03-17T09:29:29.333Z,21.92
2018-03-17T09:31:59.580Z,26.00
2018-03-17T09:34:29.542Z,19.85
2018-03-17T09:36:59.467Z,25.60
2018-03-17T09:39:29.568Z,21.95
2018-03-17T09:41:59.380Z,25.30
2018-03-17T09:44:29.160Z,25.85
2018-03-17T09:46:59.247Z,27.00
2018-03-17T09:49:29.096Z,25.83
2018-03-17T09:51:59.939Z,26.77
2018-03-17T09:54:30.034Z,24.90
2018-03-17T09:57:01.015Z,22.75
2018-03-17T09:59:30.879Z,21.98
2018-03-17T10:02:00.717Z,23.33
2018-03-17T10:04:30.562Z,24.83
2018-03-17T10:07:00.478Z,21.08
2018-03-17T10:09:30.304Z,25.95
2018-03-17T10:12:00.141Z,28.52
2018-03-17T10:14:29.996Z,26.83
2018-03-17T10:16:59.808Z,30.65
2018-03-17T10:19:30.185Z,23.85
2018-03-17T10:22:00.008Z,17.95
2018-03-17T10:24:29.857Z,27.40
2018-03-17T10:26:59.664Z,30.70
2018-03-17T10:29:29.590Z,28.12
2018-03-17T10:31:59.588Z,31.27
2018-03-17T10:34:29.458Z,24.63
2018-03-17T10:36:59.271Z,24.52
2018-03-17T10:39:32.781Z,18.85
2018-03-17T10:42:02.597Z,22.67
2018-03-17T10:44:32.400Z,33.15
2018-03-17T10:47:02.199Z,25.37
2018-03-17T10:49:32.105Z,25.00
2018-03-17T10:52:01.953Z,16.83
2018-03-17T10:54:35.608Z,27.17
2018-03-17T10:57:05.457Z,21.27
2018-03-17T10:59:35.074Z,26.70
2018-03-17T11:02:05.542Z,22.17
2018-03-17T11:04:35.340Z,29.23
2018-03-17T11:07:05.180Z,23.62
2018-03-17T11:09:35.597Z,24.58
2018-03-17T11:12:05.435Z,22.58
2018-03-17T11:14:35.250Z,19.50
2018-03-17T11:17:05.070Z,24.52
2018-03-17T11:19:34.866Z,18.85
2018-03-17T11:22:04.707Z,31.02
2018-03-17T11:24:34.526Z,22.75
2018-03-17T11:27:04.348Z,25.00
2018-03-17T11:29:34.237Z,24.12
2018-03-17T11:32:04.045Z,26.90
2018-03-17T11:34:33.927Z,31.80
2018-03-17T11:37:03.758Z,24.40
2018-03-17T11:39:33.576Z,29.20
2018-03-17T11:42:03.413Z,26.50
2018-03-17T11:44:33.232Z,28.48
2018-03-17T11:47:03.160Z,24.58
2018-03-17T11:49:32.968Z,26.50
2018-03-17T11:52:02.801Z,26.27
2018-03-17T11:54:33.234Z,20.05
2018-03-17T11:57:03.493Z,28.05
2018-03-17T11:59:33.316Z,26.05
2018-03-17T12:02:03.133Z,24.85
2018-03-17T12:04:32.999Z,27.73
2018-03-17T12:07:02.833Z,22.98
2018-03-17T12:09:32.696Z,26.70
2018-03-17T12:12:02.550Z,26.98
2018-03-17T12:14:32.355Z,23.38
2018-03-17T12:17:02.204Z,21.42
2018-03-17T12:19:32.034Z,25.62
2018-03-17T12:22:02.609Z,29.27
2018-03-17T12:24:32.455Z,29.45
2018-03-17T12:27:02.259Z,22.92
2018-03-17T12:29:32.050Z,26.80
2018-03-17T12:32:02.028Z,24.45
2018-03-17T12:34:31.889Z,25.58
2018-03-17T12:37:01.786Z,27.30
2018-03-17T12:39:31.682Z,26.98
2018-03-17T12:42:01.749Z,29.48
2018-03-17T12:44:31.548Z,27.80
2018-03-17T12:47:01.784Z,23.55
2018-03-17T12:49:31.586Z,25.85
2018-03-17T12:52:01.408Z,28.85
2018-03-17T12:54:31.242Z,23.00
2018-03-17T12:57:01.103Z,25.95
2018-03-17T12:59:30.943Z,26.12
2018-03-17T13:02:01.464Z,18.00
2018-03-17T13:04:31.347Z,19.90
2018-03-17T13:07:01.281Z,20.80
2018-03-17T13:09:31.639Z,20.20
2018-03-17T13:12:01.452Z,18.62
2018-03-17T13:14:31.518Z,17.77
2018-03-17T13:17:01.352Z,19.23
2018-03-17T13:19:31.306Z,21.02
2018-03-17T13:22:00.878Z,22.50
2018-03-17T13:24:30.578Z,21.62
2018-03-17T13:27:11.466Z,16.98
2018-03-17T13:29:41.377Z,18.25
2018-03-17T13:35:14.516Z,15.98
2018-03-17T13:37:44.121Z,16.73
2018-03-17T13:40:25.074Z,17.25
2018-03-17T13:42:54.726Z,17.02
2018-03-17T13:45:24.919Z,18.80
2018-03-17T13:47:54.834Z,18.87
2018-03-17T13:50:24.652Z,15.77
2018-03-17T13:52:54.579Z,18.50
2018-03-17T13:55:24.422Z,15.93
2018-03-17T13:57:54.237Z,14.43
2018-03-17T14:00:24.045Z,14.27
2018-03-17T14:02:53.850Z,16.92
2018-03-17T14:05:23.726Z,15.50
2018-03-17T14:07:53.546Z,17.65
2018-03-17T14:10:23.367Z,11.60
2018-03-17T14:12:53.472Z,13.73
2018-03-17T14:15:23.321Z,11.95
2018-03-17T14:17:53.942Z,14.10
2018-03-17T14:20:23.869Z,17.02
2018-03-17T14:22:53.690Z,14.07
2018-03-17T14:25:24.050Z,13.98
2018-03-17T14:27:53.843Z,13.40
2018-03-17T14:30:23.679Z,11.45
2018-03-17T14:32:53.498Z,10.55
2018-03-17T14:35:23.304Z,10.88
2018-03-17T14:37:52.921Z,11.35
2018-03-17T14:40:22.698Z,12.82
2018-03-17T14:42:52.497Z,13.00
2018-03-17T14:45:22.307Z,11.93
2018-03-17T14:47:52.103Z,11.88
2018-03-17T14:50:21.883Z,13.57
2018-03-17T14:52:51.684Z,11.38
2018-03-17T14:55:25.658Z,10.25
2018-03-17T14:57:55.499Z,13.27
2018-03-17T15:00:25.310Z,13.40
2018-03-17T15:02:55.109Z,10.90
2018-03-17T15:05:24.913Z,14.75
2018-03-17T15:07:54.790Z,17.55
2018-03-17T15:10:24.842Z,14.43
2018-03-17T15:12:54.652Z,12.10
2018-03-17T15:15:24.292Z,13.32
2018-03-17T15:17:54.385Z,13.95
2018-03-17T15:20:24.462Z,11.40
2018-03-17T15:22:54.259Z,13.77
2018-03-17T15:25:24.409Z,12.45
2018-03-17T15:27:54.075Z,14.15
2018-03-17T15:30:24.491Z,11.25
2018-03-17T15:32:54.476Z,10.48
2018-03-17T15:35:24.654Z,13.82
2018-03-17T15:37:54.807Z,13.55
2018-03-17T15:40:25.003Z,15.38
2018-03-17T15:42:54.882Z,12.43
2018-03-17T15:45:24.703Z,13.85
2018-03-17T15:47:54.507Z,9.48
2018-03-17T15:50:24.305Z,11.27
2018-03-17T15:52:54.396Z,13.45
2018-03-17T15:55:24.210Z,13.15
2018-03-17T15:57:54.100Z,10.88
2018-03-17T16:00:28.329Z,15.20
2018-03-17T16:02:58.233Z,12.40
2018-03-17T16:05:28.041Z,14.50
2018-03-17T16:07:57.832Z,14.00
2018-03-17T16:10:28.821Z,16.58
2018-03-17T16:12:58.720Z,14.93
2018-03-17T16:15:28.638Z,11.70
2018-03-17T16:17:58.458Z,15.15
2018-03-17T16:20:28.302Z,14.27
2018-03-17T16:22:58.417Z,10.60
2018-03-17T16:25:32.646Z,17.52
2018-03-17T16:28:03.857Z,12.30
2018-03-17T16:30:33.668Z,12.73
2018-03-17T16:33:03.742Z,11.30
2018-03-17T16:35:33.593Z,14.93
2018-03-17T16:38:03.392Z,11.80
2018-03-17T16:40:40.424Z,15.10
2018-03-17T16:43:10.336Z,12.05
2018-03-17T16:45:40.135Z,13.85
2018-03-17T16:48:10.242Z,14.98
2018-03-17T16:50:40.512Z,19.98
2018-03-17T16:53:11.456Z,14.70
2018-03-17T16:55:41.106Z,14.48
2018-03-17T16:58:11.044Z,14.77
2018-03-17T17:00:45.121Z,12.85
2018-03-17T17:03:15.615Z,19.77
2018-03-17T17:05:45.726Z,14.73
2018-03-17T17:08:15.582Z,14.77
2018-03-17T17:10:45.430Z,13.02
2018-03-17T17:13:15.331Z,15.60
2018-03-17T17:15:45.280Z,14.48
2018-03-17T17:18:14.961Z,18.10
2018-03-17T17:20:44.804Z,12.80
2018-03-17T17:23:14.681Z,12.50
2018-03-17T17:25:44.597Z,16.92
2018-03-17T17:28:14.478Z,14.57
2018-03-17T17:30:44.473Z,15.93
2018-03-17T17:33:18.647Z,15.93
2018-03-17T17:35:48.489Z,15.48
2018-03-17T17:38:18.458Z,11.90
2018-03-17T17:40:48.336Z,16.87
2018-03-17T17:43:18.141Z,15.07
2018-03-17T17:45:48.286Z,14.20
2018-03-17T17:48:18.012Z,14.00
2018-03-17T17:50:47.838Z,17.55
2018-03-17T17:53:17.979Z,18.00
2018-03-17T17:55:47.778Z,17.75
2018-03-17T17:58:17.528Z,13.35
2018-03-17T18:00:47.369Z,13.20
2018-03-17T18:03:17.189Z,14.10
2018-03-17T18:05:47.010Z,16.35
2018-03-17T18:08:16.879Z,16.33
2018-03-17T18:10:50.835Z,17.62
2018-03-17T18:13:20.642Z,18.20
2018-03-17T18:15:50.474Z,18.48
2018-03-17T18:18:20.281Z,15.65
2018-03-17T18:20:50.204Z,15.65
2018-03-17T18:23:20.029Z,18.23
2018-03-17T18:25:49.873Z,22.13
2018-03-17T18:28:19.469Z,17.83
2018-03-17T18:30:49.863Z,17.83
2018-03-17T18:33:19.816Z,20.58
2018-03-17T18:35:49.664Z,18.37
2018-03-17T18:38:19.483Z,16.05
2018-03-17T18:40:49.694Z,15.50
2018-03-17T18:43:19.531Z,19.62
2018-03-17T18:45:49.066Z,20.35
2018-03-17T18:48:18.740Z,20.52
2018-03-17T18:50:48.549Z,20.95
2018-03-17T18:53:18.113Z,20.70
2018-03-17T18:55:47.932Z,23.62
2018-03-17T18:58:18.875Z,21.35
2018-03-17T19:00:48.893Z,20.73
2018-03-17T19:03:18.748Z,14.80
2018-03-17T19:05:49.943Z,18.42
2018-03-17T19:08:19.780Z,20.25
2018-03-17T19:10:49.606Z,24.70
2018-03-17T19:13:19.421Z,17.87
2018-03-17T19:15:49.388Z,21.48
2018-03-17T19:18:19.418Z,17.87
2018-03-17T19:20:49.336Z,21.87
2018-03-17T19:23:19.139Z,20.52
2018-03-17T19:25:49.027Z,20.23
2018-03-17T19:28:19.234Z,22.20
2018-03-17T19:30:49.159Z,22.58
2018-03-17T19:33:19.360Z,21.98
2018-03-17T19:35:49.365Z,22.73
2018-03-17T19:38:19.394Z,26.00
2018-03-17T19:40:49.987Z,25.65
2018-03-17T19:43:20.062Z,29.92
2018-03-17T19:45:50.054Z,25.45
2018-03-17T19:48:20.483Z,22.73
2018-03-17T19:50:50.399Z,23.10
2018-03-17T19:53:20.227Z,27.33
2018-03-17T19:55:50.128Z,27.85
2018-03-17T19:58:20.118Z,27.70
2018-03-17T20:00:50.350Z,24.05
2018-03-17T20:03:19.972Z,24.98
2018-03-17T20:05:50.166Z,27.35
2018-03-17T20:08:20.131Z,28.70
2018-03-17T20:10:50.094Z,24.17
2018-03-17T20:13:20.113Z,28.65
2018-03-17T20:15:49.941Z,30.10
2018-03-17T20:18:19.766Z,33.00
2018-03-17T20:20:49.766Z,29.70
2018-03-17T20:23:19.601Z,25.40
2018-03-17T20:25:49.421Z,28.98
2018-03-17T20:28:23.862Z,28.12
2018-03-17T20:30:53.879Z,30.00
2018-03-17T20:33:24.025Z,27.33
2018-03-17T20:35:53.893Z,30.40
2018-03-17T20:38:23.699Z,31.60
2018-03-17T20:40:53.597Z,32.80
2018-03-17T20:43:23.469Z,29.20
2018-03-17T20:45:53.367Z,33.65
2018-03-17T20:48:23.166Z,33.17
2018-03-17T20:50:53.611Z,32.05
2018-03-17T20:53:23.439Z,33.92
2018-03-17T20:55:53.278Z,34.78
2018-03-17T20:58:23.063Z,28.33
2018-03-17T21:00:52.869Z,28.58
2018-03-17T21:03:22.672Z,29.23
2018-03-17T21:05:52.508Z,38.10
2018-03-17T21:08:22.651Z,31.85
2018-03-17T21:10:52.524Z,29.75
2018-03-17T21:13:22.339Z,27.17
2018-03-17T21:15:52.131Z,31.10
2018-03-17T21:18:21.949Z,34.58
2018-03-17T21:20:51.755Z,29.83
2018-03-17T21:23:21.596Z,31.70
2018-03-17T21:25:51.714Z,32.80
2018-03-17T21:28:21.579Z,31.12
2018-03-17T21:30:51.397Z,33.83
2018-03-17T21:33:21.223Z,32.47
2018-03-17T21:35:51.160Z,28.27
2018-03-17T21:38:20.962Z,28.00
2018-03-17T21:40:50.796Z,32.22
2018-03-17T21:43:20.659Z,28.20
2018-03-17T21:45:50.458Z,30.80
2018-03-17T21:48:20.272Z,26.37
2018-03-17T21:50:50.514Z,25.90
2018-03-17T21:53:20.413Z,27.30
2018-03-17T21:55:51.067Z,27.58
2018-03-17T21:58:20.948Z,32.85
2018-03-17T22:00:51.098Z,31.85
2018-03-17T22:03:21.366Z,30.55
2018-03-17T22:05:51.183Z,28.40
2018-03-17T22:08:20.695Z,26.67
2018-03-17T22:10:50.549Z,29.10
2018-03-17T22:13:20.408Z,26.37
2018-03-17T22:15:50.247Z,28.65
2018-03-17T22:18:20.050Z,29.25
2018-03-17T22:20:50.586Z,29.55
2018-03-17T22:23:20.649Z,26.58
2018-03-17T22:25:50.467Z,31.08
2018-03-17T22:28:20.274Z,25.65
2018-03-17T22:30:50.084Z,26.45
2018-03-17T22:33:19.908Z,28.33
2018-03-17T22:35:50.669Z,24.98
2018-03-17T22:38:20.467Z,25.83
2018-03-17T22:40:49.962Z,25.67
2018-03-17T22:43:19.813Z,22.92
2018-03-17T22:45:49.616Z,27.25
2018-03-17T22:48:19.435Z,25.45
2018-03-17T22:50:49.251Z,22.37
2018-03-17T22:53:19.058Z,29.02
2018-03-17T22:55:48.849Z,27.35
2018-03-17T22:58:18.745Z,28.10
2018-03-17T23:00:48.238Z,24.45
2018-03-17T23:03:18.312Z,27.35
2018-03-17T23:05:48.132Z,22.62
2018-03-17T23:08:17.948Z,24.33
2018-03-17T23:10:47.758Z,26.95
2018-03-17T23:13:17.572Z,24.40
2018-03-17T23:15:47.385Z,22.45
2018-03-17T23:18:17.219Z,22.67
2018-03-17T23:20:47.019Z,26.42
2018-03-17T23:23:16.585Z,22.95
2018-03-17T23:25:46.392Z,27.60
2018-03-17T23:28:16.028Z,24.05
2018-03-17T23:30:45.852Z,22.60
2018-03-17T23:33:15.918Z,24.37
2018-03-17T23:35:45.555Z,21.05
2018-03-17T23:38:15.361Z,24.25
2018-03-17T23:40:44.984Z,22.58
2018-03-17T23:43:14.637Z,24.42
2018-03-17T23:45:44.266Z,23.08
2018-03-17T23:48:13.903Z,22.48
2018-03-17T23:50:43.692Z,25.52
2018-03-17T23:53:13.316Z,18.90
2018-03-17T23:55:43.684Z,21.58
2018-03-17T23:58:13.319Z,25.00
